createdAt,value
2023-05-18T00:00:06.928Z,10.90
2023-05-18T00:02:35.490Z,10.90
2023-05-18T00:05:05.798Z,10.90
2023-05-18T00:07:40.015Z,10.90
2023-05-18T00:10:09.745Z,10.90
2023-05-18T00:12:37.484Z,10.90
2023-05-18T00:15:05.810Z,10.80
2023-05-18T00:17:34.765Z,10.70
2023-05-18T00:20:05.139Z,10.80
2023-05-18T00:22:33.409Z,10.80
2023-05-18T00:25:01.390Z,10.80
2023-05-18T00:27:33.219Z,10.80
2023-05-18T00:30:10.226Z,10.80
2023-05-18T00:32:41.558Z,10.80
2023-05-18T00:35:09.752Z,10.70
2023-05-18T00:37:37.522Z,10.70
2023-05-18T00:40:06.816Z,10.60
2023-05-18T00:42:35.758Z,10.60
2023-05-18T00:45:05.226Z,10.50
2023-05-18T00:47:32.993Z,10.50
2023-05-18T00:50:00.799Z,10.50
2023-05-18T00:52:33.835Z,10.50
2023-05-18T00:55:02.075Z,10.50
2023-05-18T00:57:30.410Z,10.50
2023-05-18T00:59:59.060Z,10.50
2023-05-18T01:02:30.674Z,10.50
2023-05-18T01:05:01.170Z,10.50
2023-05-18T01:07:30.331Z,10.50
2023-05-18T01:09:58.481Z,10.50
2023-05-18T01:12:36.444Z,10.50
2023-05-18T01:15:08.929Z,9.60
2023-05-18T01:18:10.774Z,10.40
2023-05-18T01:20:47.300Z,10.40
2023-05-18T01:29:35.860Z,10.40
2023-05-18T01:32:07.694Z,10.40
2023-05-18T01:34:36.798Z,10.40
2023-05-18T01:37:04.648Z,10.40
2023-05-18T01:39:35.576Z,10.40
2023-05-18T01:48:24.292Z,10.20
2023-05-18T01:51:02.718Z,10.10
2023-05-18T01:53:48.555Z,10.10
2023-05-18T01:56:21.040Z,10.00
2023-05-18T01:58:50.689Z,10.00
2023-05-18T02:01:20.445Z,9.90
2023-05-18T02:03:51.459Z,9.90
2023-05-18T02:12:01.043Z,9.90
2023-05-18T02:14:30.849Z,9.90
2023-05-18T02:16:59.204Z,9.90
2023-05-18T02:19:31.372Z,9.90
2023-05-18T02:26:58.186Z,9.80
2023-05-18T02:31:57.846Z,9.60
2023-05-18T02:47:14.213Z,9.60
2023-05-18T02:49:45.345Z,9.50
2023-05-18T02:52:15.115Z,9.50
2023-05-18T02:54:43.553Z,9.50
2023-05-18T02:57:22.676Z,9.50
2023-05-18T03:02:41.370Z,9.50
2023-05-18T03:05:11.011Z,9.50
2023-05-18T03:10:12.430Z,9.60
2023-05-18T03:12:43.093Z,9.70
2023-05-18T03:15:12.310Z,9.70
2023-05-18T03:20:17.421Z,9.70
2023-05-18T03:22:48.909Z,9.70
2023-05-18T03:25:28.709Z,6.50
2023-05-18T03:56:56.859Z,9.20
2023-05-18T03:59:30.349Z,9.10
2023-05-18T04:01:58.982Z,9.20
2023-05-18T04:04:28.158Z,9.20
2023-05-18T04:06:58.566Z,8.00
2023-05-18T04:09:29.903Z,9.20
2023-05-18T04:11:59.717Z,10.40
2023-05-18T04:14:28.323Z,9.30
2023-05-18T04:17:07.835Z,9.20
2023-05-18T04:19:45.775Z,9.20
2023-05-18T04:29:17.846Z,9.20
2023-05-18T04:32:38.192Z,9.20
2023-05-18T04:40:23.047Z,9.30
2023-05-18T04:42:52.633Z,9.30
2023-05-18T04:51:46.012Z,9.50
2023-05-18T04:56:49.081Z,9.50
2023-05-18T04:59:18.707Z,9.40
2023-05-18T05:01:50.366Z,9.40
2023-05-18T05:04:19.615Z,9.40
2023-05-18T05:12:17.120Z,9.40
2023-05-18T05:18:15.497Z,9.40
2023-05-18T05:39:27.586Z,9.70
2023-05-18T05:41:59.735Z,9.90
2023-05-18T05:50:58.075Z,10.00
2023-05-18T05:53:30.969Z,10.00
2023-05-18T05:59:34.550Z,10.30
2023-05-18T06:02:12.934Z,10.60
2023-05-18T06:04:45.243Z,10.70
2023-05-18T06:07:20.256Z,10.80
2023-05-18T06:09:53.750Z,10.70
2023-05-18T06:12:25.731Z,11.10
2023-05-18T06:21:11.680Z,11.60
2023-05-18T06:32:54.656Z,12.20
2023-05-18T06:35:32.809Z,12.20
2023-05-18T06:38:04.769Z,9.10
2023-05-18T06:40:34.568Z,12.30
2023-05-18T06:43:03.923Z,12.40
2023-05-18T06:45:41.779Z,12.50
2023-05-18T06:48:15.767Z,12.50
2023-05-18T06:50:44.036Z,12.70
2023-05-18T06:55:44.487Z,11.10
2023-05-18T06:58:16.063Z,12.80
2023-05-18T07:00:43.999Z,12.90
2023-05-18T07:03:15.500Z,12.80
2023-05-18T07:05:44.077Z,12.80
2023-05-18T07:08:12.917Z,12.90
2023-05-18T07:10:41.303Z,12.90
2023-05-18T07:13:08.972Z,13.00
2023-05-18T07:15:37.007Z,13.10
2023-05-18T07:20:34.117Z,13.20
2023-05-18T07:23:02.867Z,13.20
2023-05-18T07:25:31.272Z,13.30
2023-05-18T07:27:59.393Z,13.40
2023-05-18T07:30:31.456Z,13.50
2023-05-18T07:33:00.287Z,13.50
2023-05-18T07:35:30.180Z,13.50
2023-05-18T07:38:00.073Z,13.70
2023-05-18T07:40:31.444Z,13.70
2023-05-18T07:42:59.509Z,13.70
2023-05-18T07:45:27.190Z,13.70
2023-05-18T07:47:54.810Z,13.80
2023-05-18T07:50:22.746Z,13.90
2023-05-18T07:52:52.824Z,13.90
2023-05-18T07:55:20.507Z,14.10
2023-05-18T07:57:49.900Z,14.10
2023-05-18T08:00:18.418Z,14.10
2023-05-18T08:02:46.982Z,14.30
2023-05-18T08:05:15.139Z,14.30
2023-05-18T08:07:42.891Z,14.30
2023-05-18T08:10:11.758Z,14.30
2023-05-18T08:12:39.573Z,14.50
2023-05-18T08:15:09.240Z,14.60
2023-05-18T08:17:36.909Z,14.60
2023-05-18T08:20:05.195Z,14.70
2023-05-18T08:22:34.451Z,14.70
2023-05-18T08:25:02.772Z,14.70
2023-05-18T08:27:31.117Z,14.80
2023-05-18T08:29:58.911Z,14.90
2023-05-18T08:32:29.154Z,14.80
2023-05-18T08:34:56.770Z,14.90
2023-05-18T08:37:29.650Z,15.00
2023-05-18T08:39:59.675Z,15.10
2023-05-18T08:42:48.416Z,15.20
2023-05-18T08:45:42.190Z,15.40
2023-05-18T08:48:11.978Z,15.60
2023-05-18T08:50:42.030Z,15.80
2023-05-18T08:53:14.920Z,15.80
2023-05-18T08:55:48.063Z,16.20
2023-05-18T08:58:21.863Z,16.40
2023-05-18T09:00:56.705Z,16.60
2023-05-18T09:03:25.806Z,17.30
2023-05-18T09:05:56.609Z,16.90
2023-05-18T09:08:25.292Z,15.90
2023-05-18T09:10:56.125Z,17.20
2023-05-18T09:13:24.910Z,17.20
2023-05-18T09:15:55.949Z,17.40
2023-05-18T09:18:26.189Z,17.60
2023-05-18T09:20:56.395Z,17.70
2023-05-18T09:23:26.391Z,17.80
2023-05-18T09:25:58.998Z,17.00
2023-05-18T09:28:31.398Z,18.10
2023-05-18T09:30:59.575Z,18.20
2023-05-18T09:33:34.424Z,18.40
2023-05-18T09:36:04.543Z,18.60
2023-05-18T09:38:40.657Z,18.60
2023-05-18T09:41:13.118Z,18.90
2023-05-18T09:43:41.350Z,18.80
2023-05-18T09:46:11.133Z,18.90
2023-05-18T09:48:46.097Z,19.10
2023-05-18T09:51:17.686Z,19.10
2023-05-18T09:53:50.091Z,19.10
2023-05-18T09:56:18.553Z,19.20
2023-05-18T09:58:46.312Z,19.20
2023-05-18T10:01:14.040Z,19.30
2023-05-18T10:03:41.686Z,19.40
2023-05-18T10:06:15.503Z,19.40
2023-05-18T10:08:45.714Z,19.40
2023-05-18T10:11:19.742Z,19.40
2023-05-18T10:13:47.751Z,19.30
2023-05-18T10:16:15.824Z,19.30
2023-05-18T10:18:44.258Z,19.40
2023-05-18T10:21:14.551Z,19.70
2023-05-18T10:23:46.765Z,19.90
2023-05-18T10:26:17.789Z,19.90
2023-05-18T10:28:47.915Z,20.00
2023-05-18T10:31:18.395Z,20.10
2023-05-18T10:33:50.046Z,20.00
2023-05-18T10:36:18.543Z,19.70
2023-05-18T10:38:48.329Z,19.70
2023-05-18T10:41:23.246Z,19.70
2023-05-18T10:43:54.222Z,19.70
2023-05-18T10:46:26.767Z,19.80
2023-05-18T10:48:57.452Z,19.70
2023-05-18T10:51:26.743Z,19.70
2023-05-18T10:54:00.720Z,18.40
2023-05-18T10:56:28.934Z,20.00
2023-05-18T10:58:56.676Z,20.10
2023-05-18T11:01:24.810Z,20.30
2023-05-18T11:03:52.727Z,20.40
2023-05-18T11:06:25.720Z,20.60
2023-05-18T11:08:53.484Z,20.80
2023-05-18T11:11:28.604Z,20.80
2023-05-18T11:14:03.980Z,20.80
2023-05-18T11:16:36.653Z,20.80
2023-05-18T11:19:09.664Z,20.80
2023-05-18T11:21:41.659Z,20.80
2023-05-18T11:24:24.287Z,20.80
2023-05-18T11:26:57.442Z,20.80
2023-05-18T11:30:11.724Z,20.70
2023-05-18T11:32:51.944Z,20.80
2023-05-18T11:35:25.786Z,20.70
2023-05-18T11:37:54.299Z,20.40
2023-05-18T11:41:01.372Z,20.50
2023-05-18T11:43:30.468Z,20.60
2023-05-18T11:46:01.055Z,20.60
2023-05-18T11:48:31.617Z,20.70
2023-05-18T11:51:37.306Z,21.00
2023-05-18T11:54:09.533Z,21.30
2023-05-18T11:56:38.259Z,21.60
2023-05-18T11:59:14.557Z,21.90
2023-05-18T12:01:43.068Z,21.90
2023-05-18T12:04:13.480Z,22.20
2023-05-18T12:06:41.593Z,22.10
2023-05-18T12:09:09.526Z,22.20
2023-05-18T12:11:40.524Z,22.30
2023-05-18T12:14:08.671Z,22.60
2023-05-18T12:16:44.141Z,22.80
2023-05-18T12:19:11.933Z,23.00
2023-05-18T12:21:39.556Z,23.00
2023-05-18T12:24:07.203Z,23.00
2023-05-18T12:26:35.076Z,22.80
2023-05-18T12:29:02.655Z,22.80
2023-05-18T12:31:31.931Z,22.90
2023-05-18T12:34:03.605Z,22.90
2023-05-18T12:36:34.350Z,22.90
2023-05-18T12:39:02.801Z,23.30
2023-05-18T12:41:33.607Z,23.60
2023-05-18T12:44:05.206Z,23.90
2023-05-18T12:46:33.322Z,24.20
2023-05-18T12:49:04.771Z,24.40
2023-05-18T12:51:36.302Z,24.40
2023-05-18T12:54:05.406Z,24.30
2023-05-18T12:57:02.796Z,24.10
2023-05-18T12:59:30.399Z,25.80
2023-05-18T13:01:59.249Z,23.10
2023-05-18T13:04:37.156Z,23.00
2023-05-18T13:07:05.421Z,22.80
2023-05-18T13:09:33.640Z,22.60
2023-05-18T13:14:39.026Z,22.30
2023-05-18T13:17:08.102Z,22.00
2023-05-18T13:19:37.567Z,21.80
2023-05-18T13:22:05.300Z,21.80
2023-05-18T13:24:33.174Z,21.50
2023-05-18T13:27:00.792Z,21.40
2023-05-18T13:29:35.787Z,21.10
2023-05-18T13:32:03.875Z,21.00
2023-05-18T13:34:31.936Z,20.80
2023-05-18T13:37:01.030Z,20.40
2023-05-18T13:39:29.233Z,20.30
2023-05-18T13:41:56.820Z,20.20
2023-05-18T13:44:28.140Z,20.10
2023-05-18T13:46:58.361Z,20.10
2023-05-18T13:49:26.279Z,20.00
2023-05-18T13:52:00.387Z,20.00
2023-05-18T13:54:28.833Z,20.00
2023-05-18T13:56:56.795Z,20.00
2023-05-18T13:59:24.204Z,20.00
2023-05-18T14:01:55.524Z,20.00
2023-05-18T14:04:24.622Z,20.00
2023-05-18T14:06:55.837Z,20.00
2023-05-18T14:09:23.508Z,20.10
2023-05-18T14:11:53.049Z,20.00
2023-05-18T14:14:21.499Z,20.00
2023-05-18T14:16:48.938Z,20.00
2023-05-18T14:19:16.625Z,20.10
2023-05-18T14:21:44.724Z,20.00
2023-05-18T14:24:12.733Z,20.00
2023-05-18T14:26:41.780Z,20.00
2023-05-18T14:29:09.454Z,19.90
2023-05-18T14:31:37.302Z,20.00
2023-05-18T14:34:05.058Z,20.00
2023-05-18T14:36:32.599Z,20.00
2023-05-18T14:39:02.956Z,20.00
2023-05-18T14:41:31.804Z,19.90
2023-05-18T14:44:00.288Z,20.00
2023-05-18T14:48:57.342Z,20.40
2023-05-18T14:51:25.189Z,20.30
2023-05-18T14:53:53.088Z,20.30
2023-05-18T14:56:21.972Z,20.30
2023-05-18T14:58:50.964Z,20.50
2023-05-18T15:04:01.529Z,20.50
2023-05-18T15:06:32.976Z,20.80
2023-05-18T15:09:01.609Z,20.70
2023-05-18T15:11:33.587Z,20.80
2023-05-18T15:14:04.479Z,20.90
2023-05-18T15:16:37.381Z,20.90
2023-05-18T15:19:08.647Z,21.00
2023-05-18T15:21:36.388Z,21.00
2023-05-18T15:24:13.657Z,21.00
2023-05-18T15:26:43.270Z,21.10
2023-05-18T15:29:10.838Z,21.00
2023-05-18T15:31:40.012Z,21.10
2023-05-18T15:34:07.598Z,21.00
2023-05-18T15:36:36.570Z,20.90
2023-05-18T15:39:05.977Z,20.80
2023-05-18T15:41:39.891Z,20.90
2023-05-18T15:44:07.362Z,20.90
2023-05-18T15:46:35.934Z,21.00
2023-05-18T15:49:04.194Z,21.00
2023-05-18T15:51:34.548Z,21.00
2023-05-18T15:54:04.736Z,20.90
2023-05-18T15:56:35.308Z,20.90
2023-05-18T15:59:11.568Z,20.80
2023-05-18T16:01:42.052Z,20.90
2023-05-18T16:05:02.825Z,20.80
2023-05-18T16:07:31.091Z,21.00
2023-05-18T16:09:58.793Z,20.90
2023-05-18T16:12:26.444Z,20.80
2023-05-18T16:14:54.206Z,20.80
2023-05-18T16:17:21.874Z,20.80
2023-05-18T16:19:49.935Z,20.70
2023-05-18T16:22:17.664Z,20.60
2023-05-18T16:24:45.336Z,20.30
2023-05-18T16:27:17.284Z,20.00
2023-05-18T16:29:48.718Z,20.00
2023-05-18T16:32:23.803Z,19.90
2023-05-18T16:34:51.534Z,19.80
2023-05-18T16:37:19.326Z,19.60
2023-05-18T16:39:47.473Z,19.50
2023-05-18T16:42:33.010Z,19.40
2023-05-18T16:45:00.896Z,19.30
2023-05-18T16:47:29.061Z,19.20
2023-05-18T16:49:57.045Z,19.00
2023-05-18T16:52:25.249Z,18.90
2023-05-18T16:54:54.013Z,18.90
2023-05-18T16:57:26.716Z,18.90
2023-05-18T16:59:58.027Z,18.90
2023-05-18T17:02:25.953Z,18.90
2023-05-18T17:04:53.756Z,18.80
2023-05-18T17:07:21.958Z,19.50
2023-05-18T17:09:49.530Z,18.70
2023-05-18T17:12:17.009Z,18.80
2023-05-18T17:14:47.113Z,18.60
2023-05-18T17:17:22.788Z,18.60
2023-05-18T17:19:55.380Z,18.60
2023-05-18T17:22:41.983Z,18.40
2023-05-18T17:25:11.533Z,18.40
2023-05-18T17:30:35.810Z,18.30
2023-05-18T17:39:17.218Z,18.30
2023-05-18T17:41:45.244Z,18.10
2023-05-18T17:44:29.669Z,18.10
2023-05-18T17:47:24.336Z,18.20
2023-05-18T17:49:53.620Z,18.20
2023-05-18T17:52:21.653Z,18.20
2023-05-18T17:54:52.959Z,18.40
2023-05-18T17:57:23.340Z,18.40
2023-05-18T17:59:55.524Z,18.60
2023-05-18T18:02:27.826Z,18.60
2023-05-18T18:04:57.378Z,18.80
2023-05-18T18:07:25.668Z,18.60
2023-05-18T18:09:53.752Z,18.80
2023-05-18T18:12:21.646Z,18.70
2023-05-18T18:14:50.160Z,18.70
2023-05-18T18:17:17.918Z,18.70
2023-05-18T18:19:45.940Z,18.60
2023-05-18T18:22:13.581Z,18.60
2023-05-18T18:24:41.167Z,18.70
2023-05-18T18:27:08.792Z,18.90
2023-05-18T18:29:36.389Z,19.00
2023-05-18T18:32:04.642Z,18.90
2023-05-18T18:34:32.526Z,18.30
2023-05-18T18:37:00.101Z,18.30
2023-05-18T18:39:28.315Z,18.10
2023-05-18T18:41:56.296Z,17.60
2023-05-18T18:44:23.853Z,17.60
2023-05-18T18:46:51.697Z,17.10
2023-05-18T18:49:19.400Z,17.10
2023-05-18T18:51:48.410Z,16.80
2023-05-18T18:56:45.207Z,16.50
2023-05-18T18:59:14.217Z,16.40
2023-05-18T19:01:41.962Z,16.30
2023-05-18T19:04:09.871Z,16.30
2023-05-18T19:06:37.978Z,16.10
2023-05-18T19:09:06.183Z,16.00
2023-05-18T19:11:35.312Z,16.00
2023-05-18T19:14:04.734Z,15.90
2023-05-18T19:16:33.124Z,15.80
2023-05-18T19:22:09.933Z,15.60
2023-05-18T19:24:40.426Z,15.60
2023-05-18T19:27:08.128Z,15.30
2023-05-18T19:29:37.483Z,15.30
2023-05-18T19:32:06.730Z,15.30
2023-05-18T19:34:34.709Z,15.10
2023-05-18T19:37:02.468Z,15.10
2023-05-18T19:39:30.071Z,14.90
2023-05-18T19:41:57.726Z,14.90
2023-05-18T19:44:25.461Z,14.80
2023-05-18T19:46:53.232Z,14.70
2023-05-18T19:49:20.926Z,14.60
2023-05-18T19:51:48.576Z,14.40
2023-05-18T19:54:17.316Z,14.40
2023-05-18T19:56:45.017Z,14.40
2023-05-18T19:59:12.593Z,14.30
2023-05-18T20:01:40.693Z,14.20
2023-05-18T20:04:08.556Z,14.10
2023-05-18T20:06:37.069Z,14.10
2023-05-18T20:09:04.988Z,14.00
2023-05-18T20:11:33.094Z,13.90
2023-05-18T20:14:01.416Z,13.80
2023-05-18T20:16:30.023Z,13.90
2023-05-18T20:18:59.636Z,13.90
2023-05-18T20:21:27.582Z,13.80
2023-05-18T20:23:55.692Z,13.80
2023-05-18T20:26:23.845Z,13.80
2023-05-18T20:28:51.636Z,13.80
2023-05-18T20:31:19.914Z,13.80
2023-05-18T20:33:47.713Z,13.60
2023-05-18T20:36:15.702Z,14.00
2023-05-18T20:38:44.470Z,13.60
2023-05-18T20:41:12.457Z,13.60
2023-05-18T20:43:41.763Z,13.50
2023-05-18T20:46:09.812Z,13.50
2023-05-18T20:48:39.228Z,13.50
2023-05-18T20:51:08.624Z,13.40
2023-05-18T20:53:36.459Z,13.50
2023-05-18T20:56:05.427Z,13.50
2023-05-18T20:58:34.222Z,13.40
2023-05-18T21:01:07.573Z,13.40
2023-05-18T21:03:35.837Z,13.30
2023-05-18T21:06:04.554Z,13.30
2023-05-18T21:08:32.562Z,13.30
2023-05-18T21:11:00.223Z,13.30
2023-05-18T21:13:31.576Z,13.30
2023-05-18T21:15:59.970Z,13.30
2023-05-18T21:18:30.578Z,13.30
2023-05-18T21:20:58.852Z,13.30
2023-05-18T21:23:26.551Z,13.30
2023-05-18T21:25:54.480Z,13.20
2023-05-18T21:28:24.984Z,13.20
2023-05-18T21:30:54.966Z,13.20
2023-05-18T21:33:22.698Z,13.30
2023-05-18T21:35:50.941Z,13.20
2023-05-18T21:38:18.637Z,13.20
2023-05-18T21:40:46.837Z,13.20
2023-05-18T21:43:15.305Z,13.10
2023-05-18T21:45:42.994Z,13.20
2023-05-18T21:48:11.015Z,13.20
2023-05-18T21:50:41.493Z,13.10
2023-05-18T21:53:12.746Z,13.10
2023-05-18T21:55:41.064Z,11.40
2023-05-18T21:58:09.893Z,13.00
2023-05-18T22:00:38.390Z,13.00
2023-05-18T22:03:06.352Z,13.00
2023-05-18T22:05:34.026Z,12.90
2023-05-18T22:08:01.663Z,12.80
2023-05-18T22:10:34.137Z,12.80
2023-05-18T22:13:02.091Z,12.80
2023-05-18T22:15:29.765Z,12.70
2023-05-18T22:17:57.473Z,12.70
2023-05-18T22:22:53.546Z,12.70
2023-05-18T22:25:21.471Z,12.70
2023-05-18T22:27:49.184Z,12.60
2023-05-18T22:30:17.746Z,12.70
2023-05-18T22:32:47.683Z,12.60
2023-05-18T22:35:15.446Z,12.50
2023-05-18T22:37:44.036Z,12.60
2023-05-18T22:40:13.434Z,12.60
2023-05-18T22:42:41.625Z,12.60
2023-05-18T22:45:10.173Z,12.60
2023-05-18T22:47:39.586Z,12.60
2023-05-18T22:50:08.237Z,12.60
2023-05-18T22:52:36.792Z,12.60
2023-05-18T22:55:08.712Z,12.60
2023-05-18T22:57:36.283Z,12.50
2023-05-18T23:00:06.306Z,12.50
2023-05-18T23:02:34.013Z,12.60
2023-05-18T23:05:01.805Z,12.60
2023-05-18T23:07:30.486Z,12.50
2023-05-18T23:09:59.097Z,12.50
2023-05-18T23:12:27.028Z,12.40
2023-05-18T23:14:56.143Z,12.50
2023-05-18T23:17:23.986Z,12.50
2023-05-18T23:19:53.832Z,12.50
2023-05-18T23:22:21.598Z,12.50
2023-05-18T23:24:49.355Z,12.50
2023-05-18T23:27:17.282Z,12.40
2023-05-18T23:29:44.938Z,12.40
2023-05-18T23:32:12.784Z,12.40
2023-05-18T23:34:41.746Z,12.30
2023-05-18T23:37:13.017Z,12.30
2023-05-18T23:39:42.010Z,12.30
2023-05-18T23:42:10.809Z,12.20
2023-05-18T23:44:39.000Z,12.20
2023-05-18T23:47:06.984Z,12.20
2023-05-18T23:49:35.719Z,12.20
2023-05-18T23:52:03.614Z,12.10
2023-05-18T23:54:31.439Z,12.20
2023-05-18T23:56:59.803Z,12.10
2023-05-18T23:59:28.095Z,12.10
